Time;durP1;ratioP1;P1;durP2;ratioP2;P2;SDS_P1;SDS_P2;PMS_P1;PMS_P2;Temp;Humidity;BMP_temperature;BMP_pressure;BME280_temperature;BME280_humidity;BME280_pressure;Samples;Min_cycle;Max_cycle;Signal;HPM_P1;HPM_P2
2022/01/02 00:02:15;;;;;;;17.05;8.60;;;;;;;;;;5080512;28;20045;-62
2022/01/02 00:04:47;;;;;;;13.35;7.43;;;;;;;;;;5086962;28;20064;-62
2022/01/02 00:07:15;;;;;;;19.75;8.15;;;;;;;;;;5086644;28;20039;-62
2022/01/02 00:09:43;;;;;;;18.83;9.25;;;;;;;;;;5082909;28;20036;-63
2022/01/02 00:12:14;;;;;;;16.83;8.60;;;;;;;;;;5097094;28;20055;-63
2022/01/02 00:14:43;;;;;;;19.98;8.63;;;;;;;;;;5085399;28;20048;-63
2022/01/02 00:17:09;;;;;;;15.40;7.70;;;;;;;;;;5088619;28;20046;-63
2022/01/02 00:19:39;;;;;;;14.65;8.65;;;;;;;;;;5089310;28;20518;-62
2022/01/02 00:22:14;;;;;;;18.42;8.93;;;;;;;;;;5088760;28;20066;-63
2022/01/02 00:24:42;;;;;;;18.02;8.88;;;;;;;;;;5082651;28;20090;-62
2022/01/02 00:27:09;;;;;;;15.13;7.93;;;;;;;;;;5083385;28;20449;-62
2022/01/02 00:29:37;;;;;;;22.25;8.60;;;;;;;;;;5081336;28;20048;-62
2022/01/02 00:32:05;;;;;;;17.50;8.85;;;;;;;;;;5083434;28;20051;-62
2022/01/02 00:34:32;;;;;;;17.52;8.75;;;;;;;;;;5079858;28;20483;-63
2022/01/02 00:36:58;;;;;;;15.63;8.75;;;;;;;;;;5078445;28;20049;-63
2022/01/02 00:39:24;;;;;;;19.95;9.10;;;;;;;;;;5081588;28;20039;-63
2022/01/02 00:41:55;;;;;;;16.52;9.25;;;;;;;;;;5084195;28;20044;-63
2022/01/02 00:44:30;;;;;;;18.48;9.65;;;;;;;;;;5079811;28;20091;-62
2022/01/02 00:47:03;;;;;;;14.45;8.48;;;;;;;;;;5082101;28;20057;-63
2022/01/02 00:49:29;;;;;;;15.68;8.07;;;;;;;;;;5083371;28;20090;-62
2022/01/02 00:51:59;;;;;;;20.17;8.90;;;;;;;;;;5080984;28;20051;-63
2022/01/02 00:54:27;;;;;;;18.75;9.02;;;;;;;;;;5082889;28;20199;-63
2022/01/02 00:56:57;;;;;;;18.25;8.88;;;;;;;;;;5092531;28;20052;-63
2022/01/02 00:59:27;;;;;;;18.48;9.23;;;;;;;;;;5078501;28;20041;-63
2022/01/02 01:01:57;;;;;;;20.70;9.55;;;;;;;;;;5080672;28;20396;-63
2022/01/02 01:04:25;;;;;;;20.52;9.30;;;;;;;;;;5076398;28;20048;-63
2022/01/02 01:06:54;;;;;;;20.95;9.93;;;;;;;;;;5079670;28;20127;-62
2022/01/02 01:09:21;;;;;;;19.08;9.40;;;;;;;;;;5077191;28;20140;-63
2022/01/02 01:11:47;;;;;;;17.80;9.25;;;;;;;;;;5077995;28;20135;-62
2022/01/02 01:14:13;;;;;;;18.73;9.27;;;;;;;;;;5080905;28;20041;-62
2022/01/02 01:16:40;;;;;;;21.00;10.27;;;;;;;;;;5081551;28;20062;-63
2022/01/02 01:19:06;;;;;;;20.00;10.27;;;;;;;;;;5080734;28;20465;-62
2022/01/02 01:21:32;;;;;;;22.50;11.50;;;;;;;;;;5082029;28;20111;-63
2022/01/02 01:23:58;;;;;;;20.88;9.60;;;;;;;;;;5066759;28;20032;-62
2022/01/02 01:26:24;;;;;;;21.63;10.38;;;;;;;;;;5081628;28;20044;-63
2022/01/02 01:28:50;;;;;;;21.50;11.27;;;;;;;;;;5085444;28;20433;-63
2022/01/02 01:31:16;;;;;;;23.08;10.80;;;;;;;;;;5079060;28;20475;-63
2022/01/02 01:33:43;;;;;;;21.73;9.95;;;;;;;;;;5081612;28;20048;-63
2022/01/02 01:36:09;;;;;;;23.92;11.90;;;;;;;;;;5087009;28;20119;-63
2022/01/02 01:38:35;;;;;;;23.70;11.10;;;;;;;;;;5084876;28;20067;-63
2022/01/02 01:41:06;;;;;;;19.23;10.38;;;;;;;;;;5083780;28;20447;-62
2022/01/02 01:43:39;;;;;;;19.20;11.30;;;;;;;;;;5081739;28;20503;-63
2022/01/02 01:46:06;;;;;;;25.00;11.32;;;;;;;;;;5087270;28;20483;-63
2022/01/02 01:48:32;;;;;;;18.77;11.23;;;;;;;;;;5081743;28;20138;-63
2022/01/02 01:50:58;;;;;;;21.75;11.10;;;;;;;;;;5080590;28;20096;-62
2022/01/02 01:53:24;;;;;;;22.98;10.77;;;;;;;;;;5082753;28;20037;-63
2022/01/02 01:55:51;;;;;;;22.00;11.20;;;;;;;;;;5082608;28;20411;-62
2022/01/02 01:58:17;;;;;;;28.02;11.88;;;;;;;;;;5079724;28;20045;-62
2022/01/02 02:00:43;;;;;;;23.95;12.18;;;;;;;;;;5082851;28;20044;-63
2022/01/02 02:03:10;;;;;;;22.98;12.00;;;;;;;;;;5085402;28;20565;-63
2022/01/02 02:05:36;;;;;;;29.38;13.23;;;;;;;;;;5082783;28;20059;-63
2022/01/02 02:08:03;;;;;;;23.55;13.55;;;;;;;;;;5086056;28;20073;-63
2022/01/02 02:10:38;;;;;;;34.22;15.15;;;;;;;;;;5085438;28;20075;-63
2022/01/02 02:13:05;;;;;;;31.98;16.27;;;;;;;;;;5085712;28;20391;-63
2022/01/02 02:15:31;;;;;;;40.20;17.65;;;;;;;;;;5079820;28;20051;-62
2022/01/02 02:17:58;;;;;;;36.22;17.25;;;;;;;;;;5084105;28;20403;-63
2022/01/02 02:20:26;;;;;;;36.38;18.33;;;;;;;;;;5084418;28;20043;-62
2022/01/02 02:22:55;;;;;;;48.33;19.90;;;;;;;;;;5083679;28;20145;-62
2022/01/02 02:25:23;;;;;;;45.42;19.88;;;;;;;;;;5080245;28;20103;-62
2022/01/02 02:27:51;;;;;;;50.50;19.67;;;;;;;;;;5087309;28;20059;-62
2022/01/02 02:30:17;;;;;;;42.85;20.15;;;;;;;;;;5080596;28;20083;-62
2022/01/02 02:32:43;;;;;;;44.85;19.67;;;;;;;;;;5083922;28;20102;-62
2022/01/02 02:35:10;;;;;;;46.13;21.05;;;;;;;;;;5082415;28;20044;-63
2022/01/02 02:37:42;;;;;;;45.20;20.45;;;;;;;;;;5081935;28;20049;-62
2022/01/02 02:40:11;;;;;;;49.05;19.33;;;;;;;;;;5079137;28;20480;-63
2022/01/02 02:42:47;;;;;;;43.03;17.48;;;;;;;;;;5081251;28;20040;-62
2022/01/02 02:50:56;;;;;;;57.05;21.90;;;;;;;;;;5076415;28;20462;-62
2022/01/02 02:53:23;;;;;;;56.80;21.35;;;;;;;;;;5086259;28;20036;-62
2022/01/02 02:55:55;;;;;;;50.42;21.60;;;;;;;;;;5083022;28;20286;-63
2022/01/02 02:58:41;;;;;;;51.72;23.05;;;;;;;;;;5082689;28;20036;-62
2022/01/02 03:01:07;;;;;;;48.00;22.58;;;;;;;;;;5082006;28;20415;-63
2022/01/02 03:03:34;;;;;;;47.85;23.25;;;;;;;;;;5080331;28;20044;-62
2022/01/02 03:06:00;;;;;;;51.85;22.65;;;;;;;;;;5093893;28;20044;-62
2022/01/02 03:08:26;;;;;;;53.28;23.15;;;;;;;;;;5083114;28;20059;-62
2022/01/02 03:10:53;;;;;;;48.15;23.77;;;;;;;;;;5076743;28;20044;-62
2022/01/02 03:13:19;;;;;;;46.92;21.75;;;;;;;;;;5079692;28;20043;-62
2022/01/02 03:15:45;;;;;;;49.95;23.25;;;;;;;;;;5079729;28;20389;-62
2022/01/02 03:18:11;;;;;;;57.20;23.83;;;;;;;;;;5081694;28;20045;-62
2022/01/02 03:20:37;;;;;;;54.45;24.38;;;;;;;;;;5092711;28;20047;-62
2022/01/02 03:23:03;;;;;;;62.15;24.73;;;;;;;;;;5082580;28;20037;-62
2022/01/02 03:25:29;;;;;;;55.97;23.42;;;;;;;;;;5081285;28;20051;-62
2022/01/02 03:27:55;;;;;;;51.08;23.38;;;;;;;;;;5092616;28;20403;-62
2022/01/02 03:30:21;;;;;;;54.55;24.60;;;;;;;;;;5089295;28;20040;-62
2022/01/02 03:32:48;;;;;;;64.65;24.70;;;;;;;;;;5091110;28;20044;-62
2022/01/02 03:35:14;;;;;;;48.70;22.05;;;;;;;;;;5078065;28;20051;-62
2022/01/02 03:37:40;;;;;;;54.13;23.45;;;;;;;;;;5079994;28;20032;-62
2022/01/02 03:40:07;;;;;;;53.03;23.40;;;;;;;;;;5079896;28;20056;-62
2022/01/02 03:42:34;;;;;;;65.03;23.75;;;;;;;;;;5084146;28;20048;-62
2022/01/02 03:45:01;;;;;;;62.25;24.17;;;;;;;;;;5084594;28;20048;-63
2022/01/02 03:47:27;;;;;;;69.07;24.95;;;;;;;;;;5084974;28;20036;-62
2022/01/02 03:49:57;;;;;;;65.40;24.23;;;;;;;;;;5080688;28;20113;-63
2022/01/02 03:52:23;;;;;;;64.63;23.40;;;;;;;;;;5077779;28;20042;-62
2022/01/02 03:54:49;;;;;;;58.50;23.67;;;;;;;;;;5077460;28;20052;-62
2022/01/02 03:57:15;;;;;;;66.53;24.67;;;;;;;;;;5083084;28;20036;-62
2022/01/02 03:59:41;;;;;;;56.55;22.98;;;;;;;;;;5086060;28;20051;-62
2022/01/02 04:02:08;;;;;;;53.75;21.45;;;;;;;;;;5086883;28;20383;-62
2022/01/02 04:04:34;;;;;;;68.28;24.45;;;;;;;;;;5087471;28;20048;-62
2022/01/02 04:07:00;;;;;;;61.25;23.08;;;;;;;;;;5085436;28;20051;-62
2022/01/02 04:09:26;;;;;;;64.45;23.90;;;;;;;;;;5086222;28;20464;-62
2022/01/02 04:11:52;;;;;;;54.78;22.60;;;;;;;;;;5082474;28;20136;-62
2022/01/02 04:14:18;;;;;;;63.97;23.85;;;;;;;;;;5083747;28;20098;-62
2022/01/02 04:16:44;;;;;;;57.40;24.38;;;;;;;;;;5084040;28;20426;-62
2022/01/02 04:19:10;;;;;;;60.63;23.23;;;;;;;;;;5086359;28;21592;-62
2022/01/02 04:21:37;;;;;;;57.20;23.08;;;;;;;;;;5085113;28;20040;-62
2022/01/02 04:24:03;;;;;;;67.00;23.63;;;;;;;;;;5084079;28;20075;-62
2022/01/02 04:26:29;;;;;;;65.75;24.98;;;;;;;;;;5081581;28;20496;-62
2022/01/02 04:28:55;;;;;;;63.78;25.77;;;;;;;;;;5082610;28;20399;-62
2022/01/02 04:31:21;;;;;;;61.20;25.50;;;;;;;;;;5083900;28;20040;-62
2022/01/02 04:33:47;;;;;;;57.33;25.00;;;;;;;;;;5080171;28;20049;-62
2022/01/02 04:36:13;;;;;;;61.60;25.77;;;;;;;;;;5083804;28;20123;-62
2022/01/02 04:38:41;;;;;;;58.10;26.15;;;;;;;;;;5075276;28;20032;-62
2022/01/02 04:41:08;;;;;;;69.95;27.30;;;;;;;;;;5083069;28;20043;-62
2022/01/02 04:43:34;;;;;;;70.72;27.48;;;;;;;;;;5076157;28;20040;-62
2022/01/02 04:46:00;;;;;;;61.92;25.80;;;;;;;;;;5081878;28;20084;-62
2022/01/02 04:48:26;;;;;;;76.63;28.05;;;;;;;;;;5085768;28;20037;-62
2022/01/02 04:50:52;;;;;;;69.10;28.10;;;;;;;;;;5076771;28;20040;-62
2022/01/02 04:53:21;;;;;;;79.93;28.92;;;;;;;;;;5081451;28;20058;-62
2022/01/02 04:55:47;;;;;;;70.90;29.55;;;;;;;;;;5084048;28;20076;-62
2022/01/02 04:58:13;;;;;;;66.13;26.38;;;;;;;;;;5084539;28;20043;-62
2022/01/02 05:00:39;;;;;;;74.43;31.38;;;;;;;;;;5082241;28;20043;-63
2022/01/02 05:03:05;;;;;;;75.28;28.73;;;;;;;;;;5078544;28;20089;-62
2022/01/02 05:05:31;;;;;;;78.32;29.80;;;;;;;;;;5082698;28;20051;-63
2022/01/02 05:07:57;;;;;;;73.88;28.15;;;;;;;;;;5080853;28;20078;-62
2022/01/02 05:10:23;;;;;;;71.30;27.23;;;;;;;;;;5075400;28;20468;-62
2022/01/02 05:12:50;;;;;;;71.10;28.17;;;;;;;;;;5076458;28;20049;-62
2022/01/02 05:15:16;;;;;;;72.80;26.10;;;;;;;;;;5078081;28;20048;-62
2022/01/02 05:17:43;;;;;;;68.07;24.75;;;;;;;;;;5078889;28;20056;-62
2022/01/02 05:20:09;;;;;;;67.30;26.15;;;;;;;;;;5083380;28;20476;-62
2022/01/02 05:22:36;;;;;;;66.38;26.77;;;;;;;;;;5077387;28;20150;-62
2022/01/02 05:25:02;;;;;;;60.97;23.30;;;;;;;;;;5082071;28;20048;-62
2022/01/02 05:27:28;;;;;;;59.78;23.02;;;;;;;;;;5079730;28;20098;-63
2022/01/02 05:29:54;;;;;;;77.75;22.92;;;;;;;;;;5090002;28;20055;-62
2022/01/02 05:32:20;;;;;;;59.47;23.92;;;;;;;;;;5076021;28;20369;-63
2022/01/02 05:34:46;;;;;;;53.53;22.63;;;;;;;;;;5075341;28;20044;-62
2022/01/02 05:37:12;;;;;;;72.55;23.17;;;;;;;;;;5075440;28;20162;-62
2022/01/02 05:39:38;;;;;;;53.92;22.95;;;;;;;;;;5080166;28;20037;-62
2022/01/02 05:42:05;;;;;;;57.95;22.20;;;;;;;;;;5082303;28;20401;-62
2022/01/02 05:44:31;;;;;;;64.05;22.67;;;;;;;;;;5081703;28;20036;-62
2022/01/02 05:46:57;;;;;;;67.10;23.42;;;;;;;;;;5074870;28;20041;-63
2022/01/02 05:49:24;;;;;;;57.20;22.33;;;;;;;;;;5084264;28;20564;-62
2022/01/02 05:51:50;;;;;;;59.90;21.52;;;;;;;;;;5078979;28;20092;-63
2022/01/02 05:54:16;;;;;;;56.47;19.90;;;;;;;;;;5078291;28;20032;-62
2022/01/02 05:56:42;;;;;;;50.30;20.35;;;;;;;;;;5076060;28;20127;-62
2022/01/02 05:59:08;;;;;;;56.47;21.00;;;;;;;;;;5076856;28;20396;-62
2022/01/02 06:01:34;;;;;;;56.30;20.08;;;;;;;;;;5079844;28;20037;-62
2022/01/02 06:04:00;;;;;;;45.38;18.88;;;;;;;;;;5084077;28;20493;-62
2022/01/02 06:06:27;;;;;;;57.80;20.98;;;;;;;;;;5079614;28;20044;-62
2022/01/02 06:08:53;;;;;;;51.92;20.05;;;;;;;;;;5079630;28;20119;-62
2022/01/02 06:11:19;;;;;;;52.22;20.83;;;;;;;;;;5076646;28;20106;-62
2022/01/02 06:13:46;;;;;;;50.22;19.67;;;;;;;;;;5077787;28;20647;-62
2022/01/02 06:16:12;;;;;;;48.05;21.15;;;;;;;;;;5080230;28;20082;-62
2022/01/02 06:18:38;;;;;;;42.05;18.00;;;;;;;;;;5077820;28;20032;-62
2022/01/02 06:21:04;;;;;;;41.95;18.02;;;;;;;;;;5082674;28;20068;-62
2022/01/02 06:23:31;;;;;;;41.78;17.80;;;;;;;;;;5081471;28;20483;-62
2022/01/02 06:25:57;;;;;;;40.35;16.95;;;;;;;;;;5079160;28;20040;-63
2022/01/02 06:28:26;;;;;;;40.05;16.02;;;;;;;;;;5083776;28;20044;-62
2022/01/02 06:30:52;;;;;;;32.45;13.27;;;;;;;;;;5081913;28;20085;-62
2022/01/02 06:33:18;;;;;;;36.63;14.27;;;;;;;;;;5079277;28;20049;-62
2022/01/02 06:35:44;;;;;;;32.83;12.93;;;;;;;;;;5079174;28;20059;-62
2022/01/02 06:38:12;;;;;;;30.42;10.65;;;;;;;;;;5080447;28;20029;-62
2022/01/02 06:40:39;;;;;;;33.60;11.07;;;;;;;;;;5082564;28;20032;-62
2022/01/02 06:43:05;;;;;;;29.80;10.50;;;;;;;;;;5074478;28;20127;-62
2022/01/02 06:45:31;;;;;;;26.30;9.60;;;;;;;;;;5080187;28;20485;-62
2022/01/02 06:47:57;;;;;;;28.92;8.77;;;;;;;;;;5076639;28;20036;-63
2022/01/02 06:50:23;;;;;;;26.75;10.25;;;;;;;;;;5079102;28;20494;-62
2022/01/02 06:52:49;;;;;;;26.63;9.00;;;;;;;;;;5084427;28;20048;-62
2022/01/02 06:55:15;;;;;;;20.20;7.43;;;;;;;;;;5073379;28;20052;-62
2022/01/02 06:57:42;;;;;;;23.50;8.10;;;;;;;;;;5089181;28;20060;-62
2022/01/02 07:00:08;;;;;;;26.40;8.60;;;;;;;;;;5080567;28;20492;-63
2022/01/02 07:02:34;;;;;;;26.23;9.43;;;;;;;;;;5077817;28;20060;-63
2022/01/02 07:05:00;;;;;;;22.92;7.65;;;;;;;;;;5079631;28;20067;-62
2022/01/02 07:07:26;;;;;;;23.77;7.93;;;;;;;;;;5080167;28;20083;-62
2022/01/02 07:09:52;;;;;;;21.88;7.45;;;;;;;;;;5081113;28;20375;-62
2022/01/02 07:12:19;;;;;;;23.15;7.88;;;;;;;;;;5098087;28;20093;-62
2022/01/02 07:14:45;;;;;;;25.52;8.38;;;;;;;;;;5085386;28;20480;-63
2022/01/02 07:17:11;;;;;;;25.95;8.68;;;;;;;;;;5081078;28;20214;-62
2022/01/02 07:19:37;;;;;;;28.40;8.48;;;;;;;;;;5080154;28;20032;-63
2022/01/02 07:22:05;;;;;;;19.15;8.13;;;;;;;;;;5079477;28;20109;-62
2022/01/02 07:24:33;;;;;;;21.50;7.50;;;;;;;;;;5077573;28;20064;-62
2022/01/02 07:27:00;;;;;;;20.00;6.75;;;;;;;;;;5078643;28;20036;-62
2022/01/02 07:29:26;;;;;;;22.25;8.20;;;;;;;;;;5079245;28;20048;-63
2022/01/02 07:31:52;;;;;;;22.90;8.32;;;;;;;;;;5081981;28;20080;-62
2022/01/02 07:34:18;;;;;;;29.17;8.25;;;;;;;;;;5082096;28;20043;-63
2022/01/02 07:36:44;;;;;;;19.58;7.57;;;;;;;;;;5079532;28;20044;-62
2022/01/02 07:39:13;;;;;;;28.60;7.43;;;;;;;;;;5078770;28;20044;-62
2022/01/02 07:41:40;;;;;;;24.10;8.65;;;;;;;;;;5085447;28;20044;-62
2022/01/02 07:44:06;;;;;;;15.98;7.35;;;;;;;;;;5077726;28;20051;-62
2022/01/02 07:46:32;;;;;;;20.27;7.72;;;;;;;;;;5085978;28;20383;-62
2022/01/02 07:48:58;;;;;;;23.60;8.38;;;;;;;;;;5081961;28;20047;-62
2022/01/02 07:51:25;;;;;;;20.00;7.95;;;;;;;;;;5086946;28;20047;-61
2022/01/02 07:53:51;;;;;;;24.48;8.60;;;;;;;;;;5085231;28;20054;-62
2022/01/02 07:56:17;;;;;;;31.35;9.25;;;;;;;;;;5084173;28;20044;-62
2022/01/02 07:58:43;;;;;;;18.98;7.97;;;;;;;;;;5086256;28;20063;-63
2022/01/02 08:01:10;;;;;;;21.92;9.38;;;;;;;;;;5085395;28;20396;-63
2022/01/02 08:03:36;;;;;;;23.73;9.95;;;;;;;;;;5086793;28;20040;-63
2022/01/02 08:06:02;;;;;;;25.20;10.55;;;;;;;;;;5078442;28;20101;-63
2022/01/02 08:08:28;;;;;;;23.27;11.35;;;;;;;;;;5089456;28;20055;-64
2022/01/02 08:10:54;;;;;;;19.52;10.38;;;;;;;;;;5082639;28;20036;-63
2022/01/02 08:13:20;;;;;;;21.73;11.05;;;;;;;;;;5084241;28;20040;-63
2022/01/02 08:15:49;;;;;;;24.75;10.90;;;;;;;;;;5081732;28;20040;-63
2022/01/02 08:18:15;;;;;;;26.90;11.02;;;;;;;;;;5082189;28;20161;-63
2022/01/02 08:20:45;;;;;;;27.27;12.50;;;;;;;;;;5085093;28;20115;-63
2022/01/02 08:23:12;;;;;;;27.42;12.35;;;;;;;;;;5085815;28;20398;-63
2022/01/02 08:25:38;;;;;;;34.33;14.02;;;;;;;;;;5083537;28;20052;-62
2022/01/02 08:28:04;;;;;;;30.23;14.85;;;;;;;;;;5083696;28;20372;-63
2022/01/02 08:30:30;;;;;;;28.92;15.45;;;;;;;;;;5088094;28;20603;-63
2022/01/02 08:32:56;;;;;;;28.40;14.43;;;;;;;;;;5082932;28;20066;-63
2022/01/02 08:35:23;;;;;;;24.27;13.10;;;;;;;;;;5086372;28;20110;-63
2022/01/02 08:37:49;;;;;;;22.98;12.93;;;;;;;;;;5086643;28;20032;-62
2022/01/02 08:40:15;;;;;;;21.65;15.10;;;;;;;;;;5083882;28;20158;-63
2022/01/02 08:42:41;;;;;;;20.90;12.25;;;;;;;;;;5084995;28;20546;-64
2022/01/02 08:45:08;;;;;;;23.73;11.73;;;;;;;;;;5085468;28;20445;-62
2022/01/02 08:47:34;;;;;;;23.13;11.50;;;;;;;;;;5084019;28;20435;-63
2022/01/02 08:50:00;;;;;;;14.82;10.80;;;;;;;;;;5065988;28;20060;-65
2022/01/02 08:52:26;;;;;;;20.55;11.98;;;;;;;;;;5086528;28;20036;-63
2022/01/02 08:54:52;;;;;;;17.42;10.52;;;;;;;;;;5082178;28;20088;-64
2022/01/02 08:57:19;;;;;;;15.82;11.45;;;;;;;;;;5082924;28;20085;-63
2022/01/02 08:59:45;;;;;;;20.58;12.00;;;;;;;;;;5074150;28;20186;-62
2022/01/02 09:02:11;;;;;;;20.83;12.60;;;;;;;;;;5085653;28;20044;-62
2022/01/02 09:04:37;;;;;;;22.42;13.57;;;;;;;;;;5084874;28;20040;-63
2022/01/02 09:07:04;;;;;;;20.42;13.48;;;;;;;;;;5084555;28;20043;-62
2022/01/02 09:09:30;;;;;;;21.70;14.73;;;;;;;;;;5079687;28;20039;-62
2022/01/02 09:11:56;;;;;;;27.67;17.67;;;;;;;;;;5078402;28;20048;-62
2022/01/02 09:14:22;;;;;;;33.53;19.42;;;;;;;;;;5079554;28;20048;-62
2022/01/02 09:16:48;;;;;;;28.83;17.90;;;;;;;;;;5083845;28;20403;-62
2022/01/02 09:19:15;;;;;;;36.05;18.65;;;;;;;;;;5085311;28;20037;-62
2022/01/02 09:21:41;;;;;;;29.23;18.20;;;;;;;;;;5083547;28;20079;-64
2022/01/02 09:24:07;;;;;;;30.27;17.92;;;;;;;;;;5083125;28;20119;-62
2022/01/02 09:26:33;;;;;;;32.60;19.05;;;;;;;;;;5082166;28;20050;-63
2022/01/02 09:28:59;;;;;;;32.92;17.85;;;;;;;;;;5082148;28;20045;-62
2022/01/02 09:31:26;;;;;;;25.60;16.27;;;;;;;;;;5079530;28;20449;-63
2022/01/02 09:33:52;;;;;;;29.90;18.75;;;;;;;;;;5082834;28;20071;-63
2022/01/02 09:36:18;;;;;;;29.83;17.23;;;;;;;;;;5081643;28;20130;-62
2022/01/02 09:38:44;;;;;;;31.23;19.05;;;;;;;;;;5080193;28;20070;-62
2022/01/02 09:41:10;;;;;;;30.92;18.15;;;;;;;;;;5080003;28;20130;-62
2022/01/02 09:43:36;;;;;;;29.05;16.40;;;;;;;;;;5083123;28;20598;-62
2022/01/02 09:46:03;;;;;;;35.08;18.52;;;;;;;;;;5081208;28;20056;-63
2022/01/02 09:48:30;;;;;;;30.77;17.60;;;;;;;;;;5080635;28;20464;-62
2022/01/02 09:50:57;;;;;;;29.65;17.55;;;;;;;;;;5077042;28;20086;-62
2022/01/02 09:53:24;;;;;;;34.00;19.02;;;;;;;;;;5081015;28;20033;-62
2022/01/02 09:55:51;;;;;;;34.60;17.73;;;;;;;;;;5081206;28;20039;-61
2022/01/02 09:58:17;;;;;;;34.55;18.25;;;;;;;;;;5080386;28;20344;-62
2022/01/02 10:00:46;;;;;;;32.20;17.52;;;;;;;;;;5081685;28;20040;-62
2022/01/02 10:03:13;;;;;;;37.47;17.85;;;;;;;;;;5085035;28;20491;-63
2022/01/02 10:05:54;;;;;;;33.83;17.33;;;;;;;;;;5082829;28;20060;-62
2022/01/02 10:08:21;;;;;;;30.02;18.33;;;;;;;;;;5085247;28;20048;-62
2022/01/02 10:10:47;;;;;;;35.10;18.90;;;;;;;;;;5082282;28;20108;-62
2022/01/02 10:13:13;;;;;;;27.10;17.30;;;;;;;;;;5081314;28;20476;-62
2022/01/02 10:15:40;;;;;;;26.42;16.23;;;;;;;;;;5085190;28;20483;-62
2022/01/02 10:18:07;;;;;;;31.25;16.45;;;;;;;;;;5084117;28;20032;-62
2022/01/02 10:20:35;;;;;;;32.05;14.85;;;;;;;;;;5079976;28;20044;-62
2022/01/02 10:23:09;;;;;;;31.58;13.77;;;;;;;;;;5081981;28;20039;-62
2022/01/02 10:25:35;;;;;;;;;;;;;;;;;;5080360;28;20040;-62
2022/01/02 10:28:17;;;;;;;26.73;11.30;;;;;;;;;;5079175;28;19924;-62
2022/01/02 10:30:46;;;;;;;30.85;11.80;;;;;;;;;;5084768;28;20048;-62
2022/01/02 10:33:12;;;;;;;25.73;11.35;;;;;;;;;;5080777;28;20048;-62
2022/01/02 10:35:38;;;;;;;35.28;12.23;;;;;;;;;;5085147;28;20119;-62
2022/01/02 10:38:04;;;;;;;31.60;12.25;;;;;;;;;;5085455;28;20067;-62
2022/01/02 10:40:30;;;;;;;25.27;10.43;;;;;;;;;;5083224;28;20032;-62
2022/01/02 10:42:57;;;;;;;29.45;8.98;;;;;;;;;;5083034;28;20044;-62
2022/01/02 10:45:32;;;;;;;28.13;8.48;;;;;;;;;;5098988;28;20050;-62
2022/01/02 10:47:58;;;;;;;26.08;7.38;;;;;;;;;;5084067;28;20094;-62
2022/01/02 10:50:24;;;;;;;28.90;8.07;;;;;;;;;;5082383;28;20056;-62
2022/01/02 10:52:50;;;;;;;31.48;8.15;;;;;;;;;;5083869;28;20391;-63
2022/01/02 10:55:18;;;;;;;30.85;8.07;;;;;;;;;;5083490;28;20040;-62
2022/01/02 10:57:53;;;;;;;31.90;7.97;;;;;;;;;;5086299;28;20044;-62
2022/01/02 11:00:39;;;;;;;33.28;7.75;;;;;;;;;;5077925;28;20052;-62
2022/01/02 11:03:07;;;;;;;29.77;6.82;;;;;;;;;;5081000;28;20093;-62
2022/01/02 11:05:35;;;;;;;33.35;7.93;;;;;;;;;;5093651;28;20059;-62
2022/01/02 11:08:01;;;;;;;27.13;6.10;;;;;;;;;;5082219;28;20047;-63
2022/01/02 11:10:28;;;;;;;28.52;7.32;;;;;;;;;;5080747;28;20487;-62
2022/01/02 11:12:55;;;;;;;25.75;6.85;;;;;;;;;;5081468;28;20424;-62
2022/01/02 11:15:22;;;;;;;24.00;5.60;;;;;;;;;;5090750;28;20468;-63
2022/01/02 11:17:49;;;;;;;30.20;6.70;;;;;;;;;;5081081;28;20047;-62
2022/01/02 11:20:17;;;;;;;20.67;7.28;;;;;;;;;;5078724;28;20040;-62
2022/01/02 11:22:46;;;;;;;29.48;6.40;;;;;;;;;;5075169;28;20040;-62
2022/01/02 11:25:24;;;;;;;28.95;6.82;;;;;;;;;;5081985;28;20041;-62
2022/01/02 11:27:52;;;;;;;34.63;6.82;;;;;;;;;;5083722;28;22063;-62
2022/01/02 11:30:34;;;;;;;31.67;6.95;;;;;;;;;;5084094;28;20048;-62
2022/01/02 11:33:01;;;;;;;28.42;7.30;;;;;;;;;;5081342;28;20044;-62
2022/01/02 11:35:31;;;;;;;29.13;6.60;;;;;;;;;;5079908;28;20407;-63
2022/01/02 11:38:01;;;;;;;26.75;6.38;;;;;;;;;;5084276;28;20115;-62
2022/01/02 11:40:44;;;;;;;27.60;5.93;;;;;;;;;;5083422;28;20386;-63
2022/01/02 11:43:10;;;;;;;29.48;5.70;;;;;;;;;;5087725;28;20097;-63
2022/01/02 11:45:36;;;;;;;38.17;8.40;;;;;;;;;;5086135;28;20058;-62
2022/01/02 11:48:22;;;;;;;32.22;6.82;;;;;;;;;;5087347;28;20127;-63
2022/01/02 11:50:49;;;;;;;23.63;5.95;;;;;;;;;;5080087;28;20473;-62
2022/01/02 11:53:17;;;;;;;21.67;6.03;;;;;;;;;;5086936;28;20135;-63
2022/01/02 11:55:44;;;;;;;26.25;6.00;;;;;;;;;;5081036;28;20044;-62
2022/01/02 11:58:10;;;;;;;29.35;4.65;;;;;;;;;;5089120;28;20032;-63
2022/01/02 12:00:39;;;;;;;33.05;7.28;;;;;;;;;;5088886;28;20436;-62
2022/01/02 12:03:05;;;;;;;28.10;5.55;;;;;;;;;;5089706;28;20127;-63
2022/01/02 12:05:31;;;;;;;28.58;5.28;;;;;;;;;;5088764;28;20430;-63
2022/01/02 12:07:58;;;;;;;29.88;5.30;;;;;;;;;;5086463;28;20454;-63
2022/01/02 12:10:30;;;;;;;24.02;5.47;;;;;;;;;;5084016;28;20044;-63
2022/01/02 12:13:04;;;;;;;27.80;4.82;;;;;;;;;;5086428;28;20051;-63
2022/01/02 12:15:32;;;;;;;21.83;4.97;;;;;;;;;;5084907;28;20111;-63
2022/01/02 12:18:06;;;;;;;27.73;6.10;;;;;;;;;;5083596;28;20412;-63
2022/01/02 12:20:51;;;;;;;24.90;5.28;;;;;;;;;;5083863;28;20040;-62
2022/01/02 12:23:30;;;;;;;32.83;5.38;;;;;;;;;;5087635;28;20083;-63
2022/01/02 12:25:58;;;;;;;23.02;4.63;;;;;;;;;;5086849;28;20566;-62
2022/01/02 12:28:24;;;;;;;29.88;6.78;;;;;;;;;;5086108;28;20086;-62
2022/01/02 12:30:52;;;;;;;27.55;4.82;;;;;;;;;;5084844;28;20059;-63
2022/01/02 12:33:24;;;;;;;30.83;5.93;;;;;;;;;;5083909;28;20126;-61
2022/01/02 12:35:50;;;;;;;31.25;6.13;;;;;;;;;;5089248;28;20048;-62
2022/01/02 12:38:16;;;;;;;28.73;6.22;;;;;;;;;;5091224;28;20066;-62
2022/01/02 12:40:43;;;;;;;24.85;5.72;;;;;;;;;;5090474;28;20044;-62
2022/01/02 12:43:10;;;;;;;26.65;4.88;;;;;;;;;;5088262;28;20498;-62
2022/01/02 12:45:36;;;;;;;27.10;4.47;;;;;;;;;;5087292;28;20047;-62
2022/01/02 12:48:02;;;;;;;28.63;5.97;;;;;;;;;;5082362;28;20094;-62
2022/01/02 12:50:30;;;;;;;22.70;4.18;;;;;;;;;;5081068;28;20064;-62
2022/01/02 12:52:57;;;;;;;22.70;4.15;;;;;;;;;;5077256;28;20049;-62
2022/01/02 12:55:24;;;;;;;27.20;4.45;;;;;;;;;;5082359;28;20463;-62
2022/01/02 12:57:51;;;;;;;25.85;4.20;;;;;;;;;;5080561;28;20100;-62
2022/01/02 13:00:23;;;;;;;25.95;3.58;;;;;;;;;;5080327;28;20052;-62
2022/01/02 13:02:52;;;;;;;33.65;5.40;;;;;;;;;;5085852;28;20039;-62
2022/01/02 13:05:18;;;;;;;35.00;6.50;;;;;;;;;;5089413;28;20051;-62
2022/01/02 13:07:46;;;;;;;33.70;4.75;;;;;;;;;;5083432;28;20559;-62
2022/01/02 13:10:15;;;;;;;29.70;4.50;;;;;;;;;;5076862;28;20468;-62
2022/01/02 13:12:42;;;;;;;28.80;4.38;;;;;;;;;;5082946;28;20094;-62
2022/01/02 13:15:09;;;;;;;28.30;4.60;;;;;;;;;;5082658;28;20062;-62
2022/01/02 13:17:38;;;;;;;27.63;4.43;;;;;;;;;;5081406;28;20559;-62
2022/01/02 13:20:09;;;;;;;22.98;3.88;;;;;;;;;;5086886;28;20490;-62
2022/01/02 13:22:37;;;;;;;19.17;3.25;;;;;;;;;;5084668;28;20488;-63
2022/01/02 13:25:05;;;;;;;29.98;3.58;;;;;;;;;;5086090;28;20085;-64
2022/01/02 13:27:31;;;;;;;18.45;4.28;;;;;;;;;;5088489;28;20032;-62
2022/01/02 13:29:59;;;;;;;27.15;4.28;;;;;;;;;;5089603;28;20446;-62
2022/01/02 13:32:26;;;;;;;18.58;4.28;;;;;;;;;;5086938;28;20204;-63
2022/01/02 13:35:03;;;;;;;23.50;3.92;;;;;;;;;;5093074;28;20047;-62
2022/01/02 13:37:36;;;;;;;23.73;4.68;;;;;;;;;;5086787;28;20055;-62
2022/01/02 13:40:04;;;;;;;26.90;4.45;;;;;;;;;;5081061;28;20055;-62
2022/01/02 13:42:38;;;;;;;28.80;4.28;;;;;;;;;;5087897;28;20032;-63
2022/01/02 13:45:12;;;;;;;14.98;3.00;;;;;;;;;;5089626;28;20040;-63
2022/01/02 13:47:38;;;;;;;21.92;3.65;;;;;;;;;;5089985;28;20488;-62
2022/01/02 13:50:06;;;;;;;24.50;3.83;;;;;;;;;;5089198;28;20082;-62
2022/01/02 13:52:32;;;;;;;25.45;3.83;;;;;;;;;;5087926;28;20048;-63
2022/01/02 13:55:10;;;;;;;23.15;3.50;;;;;;;;;;5091818;28;20040;-62
2022/01/02 13:57:36;;;;;;;24.85;4.82;;;;;;;;;;5087341;28;20044;-62
2022/01/02 14:00:18;;;;;;;22.70;3.83;;;;;;;;;;5087286;28;20687;-63
2022/01/02 14:02:44;;;;;;;21.73;3.35;;;;;;;;;;5085742;28;20137;-63
2022/01/02 14:05:11;;;;;;;20.85;2.92;;;;;;;;;;5089094;28;20048;-62
2022/01/02 14:07:37;;;;;;;17.00;3.25;;;;;;;;;;5082138;28;20032;-62
2022/01/02 14:10:05;;;;;;;25.33;4.97;;;;;;;;;;5093125;28;20131;-62
2022/01/02 14:12:34;;;;;;;23.95;4.32;;;;;;;;;;5086406;28;20039;-63
2022/01/02 14:15:14;;;;;;;19.95;3.42;;;;;;;;;;5088906;28;20714;-62
2022/01/02 14:17:44;;;;;;;22.15;2.95;;;;;;;;;;5084054;28;20472;-62
2022/01/02 14:20:11;;;;;;;19.35;3.15;;;;;;;;;;5095113;28;20050;-62
2022/01/02 14:22:37;;;;;;;17.83;2.65;;;;;;;;;;5090761;28;20395;-62
2022/01/02 14:25:06;;;;;;;24.27;3.85;;;;;;;;;;5088899;28;20089;-62
2022/01/02 14:27:33;;;;;;;28.73;4.75;;;;;;;;;;5085758;28;20028;-62
2022/01/02 14:29:59;;;;;;;20.50;3.72;;;;;;;;;;5088862;28;20044;-62
2022/01/02 14:32:25;;;;;;;21.00;3.28;;;;;;;;;;5091051;28;20078;-63